Time;durP1;ratioP1;P1;durP2;ratioP2;P2;SDS_P1;SDS_P2;PMS_P1;PMS_P2;Temp;Humidity;BMP_temperature;BMP_pressure;BME280_temperature;BME280_humidity;BME280_pressure;Samples;Min_cycle;Max_cycle;Signal;HPM_P1;HPM_P2
2022/01/23 00:02:05;;;;;;;2.13;1.58;;;;;;;26.09;28.51;98142.97;4880866;29;20043;-62
2022/01/23 00:04:30;;;;;;;2.47;1.55;;;;;;;26.09;28.63;98138.56;4880268;29;20044;-63
2022/01/23 00:06:56;;;;;;;1.85;1.52;;;;;;;26.10;28.59;98148.13;4899606;29;20152;-64
2022/01/23 00:09:21;;;;;;;1.67;1.50;;;;;;;26.11;28.58;98141.13;4884808;29;20558;-63
2022/01/23 00:11:52;;;;;;;2.45;1.65;;;;;;;26.12;28.67;98142.00;4883080;29;20047;-63
2022/01/23 00:19:49;;;;;;;2.58;1.35;;;;;;;26.12;28.60;98126.25;4879529;29;20790;-64
2022/01/23 00:22:15;;;;;;;1.83;1.33;;;;;;;26.07;28.58;98129.88;4872926;29;21238;-64
2022/01/23 00:32:50;;;;;;;2.80;1.50;;;;;;;26.09;28.57;98128.03;4881354;29;20607;-64
2022/01/23 00:35:16;;;;;;;2.47;1.20;;;;;;;26.10;28.67;98128.91;4881367;29;20023;-64
2022/01/23 00:37:42;;;;;;;2.78;1.60;;;;;;;26.09;28.75;98120.16;4884459;29;20679;-66
2022/01/23 00:40:07;;;;;;;1.52;1.30;;;;;;;26.10;28.76;98128.91;4885405;29;20036;-65
2022/01/23 00:42:34;;;;;;;2.53;1.60;;;;;;;26.09;28.73;98133.28;4883599;29;20032;-64
2022/01/23 00:45:34;;;;;;;1.60;1.40;;;;;;;26.08;28.66;98123.69;4883693;29;20679;-64
2022/01/23 00:47:54;;;;;;;1.58;1.45;;;;;;;26.09;28.59;98133.28;4879839;29;20071;-63
2022/01/23 00:50:20;;;;;;;2.60;1.38;;;;;;;26.08;28.53;98125.47;4881540;29;20040;-63
2022/01/23 00:52:45;;;;;;;1.92;1.40;;;;;;;26.08;28.59;98131.59;4884956;29;20036;-63
2022/01/23 00:55:10;;;;;;;4.43;1.35;;;;;;;26.08;28.52;98128.97;4896967;29;20024;-64
2022/01/23 00:57:36;;;;;;;1.88;1.35;;;;;;;26.07;28.59;98124.63;4884051;29;20027;-64
2022/01/23 01:00:06;;;;;;;1.77;1.30;;;;;;;26.08;28.50;98125.47;4883039;29;20032;-61
2022/01/23 01:02:31;;;;;;;2.30;1.15;;;;;;;26.07;28.54;98119.38;4884307;29;20050;-64
2022/01/23 01:04:57;;;;;;;2.83;1.27;;;;;;;26.07;28.65;98115.88;4899310;29;20487;-64
2022/01/23 01:07:22;;;;;;;2.45;1.35;;;;;;;26.09;28.64;98121.94;4885946;29;20095;-64
2022/01/23 01:09:51;;;;;;;1.88;1.45;;;;;;;26.08;28.63;98128.09;4884398;29;20081;-63
2022/01/23 01:12:32;;;;;;;2.17;1.23;;;;;;;26.07;28.65;98129.88;4889156;29;20116;-64
2022/01/23 01:15:25;;;;;;;2.25;1.20;;;;;;;26.07;28.81;98124.63;4889054;29;20036;-64
2022/01/23 01:33:59;;;;;;;1.98;1.17;;;;;;;26.04;28.59;98114.22;4881654;29;20032;-62
2022/01/23 01:36:32;;;;;;;1.30;1.10;;;;;;;26.04;28.75;98127.34;4884785;29;20870;-64
2022/01/23 01:38:57;;;;;;;1.52;1.20;;;;;;;26.03;28.74;98125.63;4881481;29;20054;-62
2022/01/23 01:41:23;;;;;;;1.45;1.23;;;;;;;26.03;28.63;98115.13;4884094;29;20028;-64
2022/01/23 01:43:49;;;;;;;1.10;1.00;;;;;;;26.03;28.69;98117.75;4880894;29;20025;-64
2022/01/23 01:46:15;;;;;;;2.47;1.08;;;;;;;26.02;28.72;98121.28;4879746;29;20046;-64
2022/01/23 01:48:40;;;;;;;1.80;1.20;;;;;;;26.03;28.77;98123.00;4897974;29;20036;-64
2022/01/23 01:51:09;;;;;;;2.03;1.33;;;;;;;26.03;28.60;98122.13;4883827;29;20087;-63
2022/01/23 01:53:34;;;;;;;1.00;0.90;;;;;;;26.01;28.68;98114.31;4884650;29;20036;-64
2022/01/23 01:56:00;;;;;;;0.93;0.90;;;;;;;26.03;28.60;98120.38;4857338;29;20032;-64
2022/01/23 02:02:41;;;;;;;1.30;1.20;;;;;;;26.02;28.66;98126.53;4881785;29;20039;-63
2022/01/23 02:09:22;;;;;;;2.28;1.10;;;;;;;26.01;28.74;98114.31;4881693;29;20219;-64
2022/01/23 02:14:45;;;;;;;;;;;;;;;;;;;;;
2022/01/23 02:17:27;;;;;;;2.80;1.00;;;;;;;26.01;28.56;98116.09;4881241;29;20970;-63
2022/01/23 02:55:20;;;;;;;4.43;1.10;;;;;;;25.96;28.77;98095.22;4885034;29;20040;-63
2022/01/23 03:00:17;;;;;;;1.20;1.00;;;;;;;25.96;28.67;98084.72;4886429;29;19919;-63
2022/01/23 03:02:49;;;;;;;1.42;0.98;;;;;;;25.93;28.59;98082.19;4889771;29;20043;-64
2022/01/23 03:05:33;;;;;;;1.35;1.00;;;;;;;25.95;28.80;98077.75;4890909;29;20076;-62
2022/01/23 03:08:24;;;;;;;0.88;0.82;;;;;;;25.92;28.79;98072.59;4888208;29;20038;-63
2022/01/23 03:10:59;;;;;;;1.48;0.88;;;;;;;25.93;28.63;98085.66;4884739;29;20032;-63
2022/01/23 03:26:48;;;;;;;1.20;0.95;;;;;;;25.94;28.60;98102.28;4898716;29;20047;-61
2022/01/23 03:29:23;;;;;;;1.07;0.90;;;;;;;25.92;28.80;98104.09;4886560;29;20073;-63
2022/01/23 03:34:17;;;;;;;0.88;0.80;;;;;;;25.93;28.78;98116.34;4898993;29;20455;-63
2022/01/23 03:36:43;;;;;;;2.47;0.90;;;;;;;25.92;28.67;98104.97;4883721;29;20029;-64
2022/01/23 03:39:09;;;;;;;0.77;0.77;;;;;;;25.93;28.65;98105.84;4884419;29;20043;-63
2022/01/23 03:41:36;;;;;;;1.27;0.82;;;;;;;25.92;28.75;98110.22;4883953;29;20024;-61
2022/01/23 03:44:04;;;;;;;0.98;0.70;;;;;;;25.93;28.74;98111.09;4858671;29;20986;-64
2022/01/23 03:51:44;;;;;;;0.80;0.75;;;;;;;25.93;28.76;98122.44;4868156;29;20038;-65
2022/01/23 03:54:10;;;;;;;1.10;1.00;;;;;;;25.94;28.66;98123.31;4864563;29;20044;-63
2022/01/23 03:56:35;;;;;;;0.77;0.77;;;;;;;25.93;28.74;98116.34;4865634;29;20738;-64
2022/01/23 03:59:01;;;;;;;0.85;0.75;;;;;;;25.93;28.73;98126.84;4879852;29;21192;-64
2022/01/23 04:01:26;;;;;;;1.05;0.90;;;;;;;25.92;28.67;98125.09;4880695;29;20383;-63
2022/01/23 04:03:54;;;;;;;1.20;0.88;;;;;;;25.90;28.75;98119.91;4880408;29;20092;-63
2022/01/23 04:06:20;;;;;;;1.25;0.90;;;;;;;25.91;28.68;98128.66;4885741;29;20588;-64
2022/01/23 04:08:45;;;;;;;0.65;0.65;;;;;;;25.92;28.63;98122.47;4883057;29;20575;-61
2022/01/23 04:11:11;;;;;;;0.68;0.68;;;;;;;25.89;28.68;98119.97;4885249;29;20100;-63
2022/01/23 04:13:45;;;;;;;0.80;0.70;;;;;;;25.92;28.63;98131.22;4884137;29;20028;-63
2022/01/23 04:34:53;;;;;;;1.17;0.90;;;;;;;25.90;28.70;98119.06;4883938;29;20248;-64
2022/01/23 04:45:35;;;;;;;1.27;0.75;;;;;;;25.86;28.88;98113.06;4887125;29;20107;-63
2022/01/23 05:06:47;;;;;;;1.08;0.80;;;;;;;25.82;28.71;98114.91;4884936;29;20047;-63
2022/01/23 05:09:14;;;;;;;1.02;0.73;;;;;;;25.82;28.83;98120.16;4898680;29;20032;-64
2022/01/23 05:11:44;;;;;;;1.10;0.60;;;;;;;25.83;28.80;98128.91;4896858;29;20653;-64
2022/01/23 05:14:10;;;;;;;1.02;0.70;;;;;;;25.83;28.84;98121.88;4872607;29;20147;-64
2022/01/23 05:16:35;;;;;;;0.73;0.65;;;;;;;25.83;28.86;98116.63;4867700;29;20319;-64
2022/01/23 05:19:01;;;;;;;0.77;0.65;;;;;;;25.83;28.91;98115.78;4880823;29;20087;-63
2022/01/23 05:21:53;;;;;;;0.70;0.70;;;;;;;25.83;28.86;98111.38;4897742;29;20031;-64
2022/01/23 05:24:18;;;;;;;1.80;0.73;;;;;;;25.83;28.75;98111.38;4884002;29;20048;-64
2022/01/23 05:26:46;;;;;;;0.88;0.77;;;;;;;25.82;28.81;98120.16;4883612;29;20036;-63
2022/01/23 05:29:12;;;;;;;1.10;0.60;;;;;;;25.84;28.79;98114.84;4881653;29;20032;-62
2022/01/23 05:31:37;;;;;;;0.60;0.60;;;;;;;25.82;28.81;98128.03;4881338;29;20511;-64
2022/01/23 05:34:02;;;;;;;0.65;0.65;;;;;;;25.82;28.69;98130.66;4878871;29;20035;-62
2022/01/23 05:36:28;;;;;;;0.50;0.50;;;;;;;25.82;28.77;98130.66;4897475;29;20040;-63
2022/01/23 05:38:53;;;;;;;1.00;0.68;;;;;;;25.82;28.85;98141.16;4883821;29;20044;-64
2022/01/23 05:41:19;;;;;;;0.80;0.70;;;;;;;25.83;28.63;98145.50;4881437;29;20036;-64
2022/01/23 05:43:45;;;;;;;0.98;0.70;;;;;;;25.82;28.73;98145.56;4879748;29;20091;-64
2022/01/23 05:46:10;;;;;;;2.33;0.75;;;;;;;25.82;28.68;98151.66;4877828;29;20036;-64
2022/01/23 05:48:36;;;;;;;0.65;0.65;;;;;;;25.82;28.77;98148.19;4882174;29;20068;-63
2022/01/23 05:51:01;;;;;;;0.60;0.60;;;;;;;25.80;28.82;98137.75;4882103;29;20032;-62
2022/01/23 05:53:26;;;;;;;0.60;0.60;;;;;;;25.80;28.73;98137.75;4883539;29;20039;-63
2022/01/23 05:55:52;;;;;;;1.85;0.80;;;;;;;25.81;28.81;98135.97;4880387;29;20024;-64
2022/01/23 05:58:17;;;;;;;0.60;0.60;;;;;;;25.80;28.77;98131.63;4880199;29;20028;-61
2022/01/23 06:00:43;;;;;;;0.73;0.70;;;;;;;25.80;28.85;98137.75;4879816;29;20036;-64
2022/01/23 06:03:08;;;;;;;1.23;0.70;;;;;;;25.80;28.89;98127.25;4881685;29;20028;-64
2022/01/23 06:05:33;;;;;;;0.70;0.70;;;;;;;25.78;28.72;98142.16;4880675;29;20088;-64
2022/01/23 06:07:59;;;;;;;0.75;0.70;;;;;;;25.79;28.78;98149.16;4880795;29;20032;-61
2022/01/23 06:10:27;;;;;;;0.73;0.70;;;;;;;25.78;28.85;98150.03;4882062;29;20035;-64
2022/01/23 06:12:52;;;;;;;0.88;0.68;;;;;;;25.79;28.95;98146.53;4882118;29;20028;-61
2022/01/23 06:15:18;;;;;;;0.80;0.60;;;;;;;25.78;28.86;98150.03;4882573;29;20035;-64
2022/01/23 06:17:43;;;;;;;0.70;0.70;;;;;;;25.77;28.75;98153.59;4879029;29;20032;-63
2022/01/23 06:20:10;;;;;;;0.70;0.60;;;;;;;25.78;28.93;98154.47;4895353;29;20032;-64
2022/01/23 06:22:36;;;;;;;0.70;0.68;;;;;;;25.77;28.88;98164.09;4880695;29;20029;-64
2022/01/23 06:25:05;;;;;;;0.52;0.52;;;;;;;25.77;28.83;98165.84;4879826;29;20064;-64
2022/01/23 06:27:30;;;;;;;0.60;0.40;;;;;;;25.77;28.78;98163.22;4880161;29;20112;-64
2022/01/23 06:29:55;;;;;;;0.50;0.50;;;;;;;25.77;28.84;98161.47;4896678;29;20036;-63
2022/01/23 06:32:21;;;;;;;0.73;0.73;;;;;;;25.77;28.79;98164.09;4895235;29;20025;-63
2022/01/23 06:34:46;;;;;;;1.02;0.50;;;;;;;25.77;28.76;98164.09;4898519;29;20036;-64
2022/01/23 06:37:12;;;;;;;0.55;0.55;;;;;;;25.78;28.61;98171.06;4884698;29;20115;-64
2022/01/23 06:39:38;;;;;;;1.80;0.70;;;;;;;25.78;28.85;98165.81;4880750;29;20219;-64
2022/01/23 06:42:03;;;;;;;2.28;0.70;;;;;;;25.78;28.78;98167.59;4881563;29;20039;-63
2022/01/23 06:44:29;;;;;;;0.77;0.70;;;;;;;25.78;28.85;98175.47;4880655;29;20032;-64
2022/01/23 06:46:55;;;;;;;0.70;0.60;;;;;;;25.78;28.72;98168.44;4896861;29;20024;-64
2022/01/23 06:49:20;;;;;;;0.75;0.43;;;;;;;25.78;28.83;98175.47;4879344;29;20039;-63
2022/01/23 06:51:47;;;;;;;1.13;0.63;;;;;;;25.78;28.83;98178.94;4895969;29;20151;-63
2022/01/23 06:54:12;;;;;;;0.52;0.45;;;;;;;25.78;28.79;98176.31;4882645;29;20131;-62
2022/01/23 06:56:37;;;;;;;0.65;0.60;;;;;;;25.78;28.73;98181.56;4881339;29;20074;-66
2022/01/23 06:59:03;;;;;;;0.57;0.57;;;;;;;25.78;28.79;98181.56;4880640;29;20036;-65
2022/01/23 07:01:28;;;;;;;0.73;0.70;;;;;;;25.80;28.87;98194.63;4881944;29;20036;-63
2022/01/23 07:03:54;;;;;;;1.88;0.73;;;;;;;25.79;28.72;98190.31;4885154;29;20032;-64
2022/01/23 07:06:19;;;;;;;0.57;0.57;;;;;;;25.79;28.72;98188.56;4880372;29;20035;-63
2022/01/23 07:08:44;;;;;;;0.43;0.43;;;;;;;25.78;28.85;98192.06;4882111;29;20021;-63
2022/01/23 07:11:10;;;;;;;0.55;0.52;;;;;;;25.79;28.72;98201.69;4881602;29;20047;-64
2022/01/23 07:13:35;;;;;;;0.57;0.55;;;;;;;25.78;28.73;98207.81;4884962;29;20096;-62
2022/01/23 07:16:06;;;;;;;0.70;0.70;;;;;;;25.79;28.85;98204.31;4885200;29;20025;-63
2022/01/23 07:18:31;;;;;;;0.77;0.60;;;;;;;25.80;28.81;98210.41;4884883;29;20846;-62
2022/01/23 07:20:57;;;;;;;2.20;0.70;;;;;;;25.77;28.84;98203.47;4880948;29;20104;-63
2022/01/23 07:23:23;;;;;;;0.60;0.60;;;;;;;25.80;28.80;98216.53;4883781;29;20051;-64
2022/01/23 07:25:49;;;;;;;0.88;0.70;;;;;;;25.81;28.82;98217.34;4885167;29;20024;-64
2022/01/23 07:28:17;;;;;;;0.70;0.70;;;;;;;25.81;28.63;98220.00;4891710;29;20036;-64
2022/01/23 07:30:56;;;;;;;2.17;1.23;;;;;;;25.80;28.70;98216.53;4885759;29;20054;-63
2022/01/23 07:33:21;;;;;;;1.48;0.90;;;;;;;25.80;28.78;98221.78;4883840;29;20032;-63
2022/01/23 07:35:47;;;;;;;2.25;1.17;;;;;;;25.80;28.81;98216.53;4881744;29;20733;-61
2022/01/23 07:38:16;;;;;;;4.38;2.50;;;;;;;25.80;28.59;98224.41;4884457;29;20024;-65
2022/01/23 07:40:42;;;;;;;5.75;1.63;;;;;;;25.78;28.67;98223.56;4884875;29;20054;-63
2022/01/23 07:43:08;;;;;;;5.65;1.40;;;;;;;25.79;28.63;98213.94;4874397;29;20775;-63
2022/01/23 07:45:33;;;;;;;3.00;1.55;;;;;;;25.77;28.53;98216.59;4884247;29;20044;-63
2022/01/23 07:47:58;;;;;;;3.88;1.52;;;;;;;25.77;28.75;98215.72;4882577;29;20110;-64
2022/01/23 07:50:24;;;;;;;2.97;1.70;;;;;;;25.77;28.66;98221.84;4881015;29;20037;-61
2022/01/23 07:52:49;;;;;;;8.98;1.80;;;;;;;25.76;28.74;98220.16;4883245;29;20043;-60
2022/01/23 07:55:15;;;;;;;8.75;1.40;;;;;;;25.77;28.74;98221.84;4877881;29;20029;-62
2022/01/23 07:57:44;;;;;;;6.85;2.00;;;;;;;25.76;28.87;98225.41;4897002;29;20740;-61
2022/01/23 08:00:11;;;;;;;4.43;1.77;;;;;;;25.77;28.71;98220.97;4880588;29;20090;-61
2022/01/23 08:02:36;;;;;;;3.80;1.75;;;;;;;25.77;28.82;98227.09;4900612;28;20059;-61
2022/01/23 08:05:02;;;;;;;3.75;1.52;;;;;;;25.78;28.87;98241.94;4898706;29;20039;-61
2022/01/23 08:09:55;;;;;;;3.30;1.95;;;;;;;25.78;28.77;98236.69;4918560;28;20125;-59
2022/01/23 08:12:21;;;;;;;3.20;1.70;;;;;;;25.78;28.69;98243.72;4903554;29;20039;-60
2022/01/23 08:14:47;;;;;;;2.85;1.70;;;;;;;25.79;28.74;98246.31;4903488;29;20027;-62
2022/01/23 08:17:12;;;;;;;3.90;2.10;;;;;;;25.79;28.73;98250.69;4902225;29;20027;-61
2022/01/23 08:19:38;;;;;;;3.03;1.77;;;;;;;25.78;28.75;98257.69;4902294;29;20079;-61
2022/01/23 08:22:04;;;;;;;2.65;1.70;;;;;;;25.79;28.56;98254.19;4903914;29;20020;-61
2022/01/23 08:24:29;;;;;;;4.28;1.83;;;;;;;25.78;28.52;98247.19;4904307;29;20032;-62
2022/01/23 08:26:54;;;;;;;3.42;1.80;;;;;;;25.80;28.73;98247.16;4902497;29;20043;-61
2022/01/23 08:29:20;;;;;;;3.47;1.67;;;;;;;25.80;28.75;98253.28;4905326;29;20036;-60
2022/01/23 08:31:47;;;;;;;2.83;1.85;;;;;;;25.80;28.58;98257.66;4902560;29;20461;-61
2022/01/23 08:34:12;;;;;;;3.10;1.90;;;;;;;25.80;28.65;98255.91;4902245;29;20515;-60
2022/01/23 08:36:37;;;;;;;3.03;1.80;;;;;;;25.79;28.83;98256.81;4900999;29;20091;-61
2022/01/23 08:39:03;;;;;;;2.53;1.90;;;;;;;25.80;28.75;98253.28;4914135;29;20062;-61
2022/01/23 08:44:13;;;;;;;5.00;2.63;;;;;;;25.81;28.55;98260.25;4900317;29;20690;-61
2022/01/23 08:46:38;;;;;;;2.25;1.70;;;;;;;25.80;28.63;98261.16;4901394;29;20040;-61
2022/01/23 08:49:04;;;;;;;3.50;1.70;;;;;;;25.81;28.51;98264.63;4902328;29;20031;-61
2022/01/23 08:51:29;;;;;;;3.83;1.70;;;;;;;25.81;28.66;98265.50;4899656;29;20028;-61
2022/01/23 08:53:55;;;;;;;3.97;1.85;;;;;;;25.82;28.69;98261.97;4912796;29;20591;-61
2022/01/23 08:56:20;;;;;;;3.20;1.60;;;;;;;25.82;28.81;98261.97;4897116;29;20032;-61
2022/01/23 08:58:45;;;;;;;3.28;1.60;;;;;;;25.85;28.79;98265.41;4899124;29;20039;-59
2022/01/23 09:01:11;;;;;;;2.70;1.73;;;;;;;25.85;28.84;98260.16;4898383;29;20043;-61
2022/01/23 09:03:36;;;;;;;4.05;1.75;;;;;;;25.85;28.93;98253.13;4902216;29;20036;-59
2022/01/23 09:06:04;;;;;;;2.30;1.70;;;;;;;25.87;28.93;98255.72;4899911;29;20038;-61
2022/01/23 09:08:29;;;;;;;3.33;1.55;;;;;;;25.87;28.81;98253.09;4901040;29;20049;-62
2022/01/23 09:10:57;;;;;;;2.78;1.60;;;;;;;25.88;28.91;98250.41;4901523;29;20028;-61
2022/01/23 09:13:40;;;;;;;3.00;1.90;;;;;;;25.88;28.90;98244.28;4902797;29;20043;-62
2022/01/23 09:16:09;;;;;;;2.75;1.63;;;;;;;25.90;29.05;98248.59;4901365;29;20917;-60
2022/01/23 09:18:34;;;;;;;2.63;1.52;;;;;;;25.91;29.00;98254.72;4899225;29;20039;-62
2022/01/23 09:21:00;;;;;;;2.80;1.85;;;;;;;25.91;28.98;98244.22;4902135;29;20036;-60
2022/01/23 09:23:25;;;;;;;2.78;1.77;;;;;;;25.92;28.81;98241.53;4902749;29;21049;-62
2022/01/23 09:25:51;;;;;;;3.67;1.60;;;;;;;25.93;29.09;98245.03;4910547;28;20036;-61
2022/01/23 09:28:18;;;;;;;3.08;1.50;;;;;;;25.92;29.07;98240.66;4896643;29;20071;-61
2022/01/23 09:30:48;;;;;;;6.35;1.50;;;;;;;25.93;29.14;98242.41;4900785;29;20042;-61
2022/01/23 09:33:14;;;;;;;11.65;2.92;;;;;;;25.89;28.44;98239.00;4906310;29;20036;-61
2022/01/23 09:35:40;;;;;;;11.73;9.00;;;;;;;25.78;25.14;98244.56;4914225;29;20550;-61
2022/01/23 09:38:05;;;;;;;13.27;9.95;;;;;;;25.53;23.44;98247.91;4899357;29;20046;-64
2022/01/23 09:40:31;;;;;;;11.15;9.98;;;;;;;25.21;22.61;98244.44;4901643;29;20042;-62
2022/01/23 09:43:06;;;;;;;14.82;8.95;;;;;;;24.89;22.65;98243.53;4897653;29;20557;-63
2022/01/23 09:45:31;;;;;;;16.40;7.55;;;;;;;24.69;23.73;98239.63;4915436;29;20097;-63
2022/01/23 09:47:57;;;;;;;7.20;6.47;;;;;;;24.53;24.55;98242.63;4901236;29;20044;-62
2022/01/23 09:50:22;;;;;;;6.82;5.57;;;;;;;24.49;25.00;98237.53;4901238;29;20035;-62
2022/01/23 09:52:48;;;;;;;7.50;5.03;;;;;;;24.48;25.40;98241.88;4899987;29;20805;-61
2022/01/23 09:55:15;;;;;;;9.05;4.55;;;;;;;24.49;25.84;98240.13;4902786;29;20028;-62
2022/01/23 09:57:45;;;;;;;6.53;4.40;;;;;;;24.52;26.08;98242.69;4897637;29;20940;-62
2022/01/23 10:00:12;;;;;;;9.32;3.72;;;;;;;24.55;26.14;98241.75;4912090;29;20434;-62
2022/01/23 10:02:38;;;;;;;6.32;3.60;;;;;;;24.60;26.50;98238.09;4898859;29;20050;-61
2022/01/23 10:05:04;;;;;;;6.05;3.70;;;;;;;24.65;26.42;98230.13;4913966;28;20024;-62
2022/01/23 10:07:30;;;;;;;5.40;3.30;;;;;;;24.70;26.83;98228.25;4891338;29;20744;-61
2022/01/23 10:10:07;;;;;;;5.35;3.08;;;;;;;24.74;26.78;98229.88;4898348;29;20035;-61
2022/01/23 10:12:33;;;;;;;5.22;3.70;;;;;;;24.80;26.76;98226.25;4900878;29;20150;-59
2022/01/23 10:14:58;;;;;;;6.43;3.60;;;;;;;24.83;26.69;98233.19;4899831;29;20702;-60
2022/01/23 10:17:24;;;;;;;9.15;2.78;;;;;;;24.86;26.95;98227.91;4894373;29;20047;-59
2022/01/23 10:19:49;;;;;;;13.18;5.30;;;;;;;24.89;27.00;98235.66;4908646;28;20028;-61
2022/01/23 10:22:15;;;;;;;10.35;5.40;;;;;;;24.93;26.90;98242.53;4897498;29;20045;-60
2022/01/23 10:24:41;;;;;;;12.25;6.30;;;;;;;24.94;27.12;98241.63;4902951;29;20027;-62
2022/01/23 10:27:06;;;;;;;10.95;7.18;;;;;;;24.98;27.12;98243.28;4898974;29;20639;-59
2022/01/23 10:29:35;;;;;;;13.75;7.32;;;;;;;25.02;27.25;98244.91;4899132;29;20035;-61
2022/01/23 10:32:06;;;;;;;15.32;6.72;;;;;;;25.07;27.24;98246.56;4908707;29;20069;-59
2022/01/23 10:34:41;;;;;;;15.13;5.68;;;;;;;25.11;27.25;98248.19;4894554;29;20050;-61
2022/01/23 10:37:07;;;;;;;12.85;5.07;;;;;;;25.14;27.28;98238.47;4898490;29;20189;-60
2022/01/23 10:39:44;;;;;;;13.55;5.88;;;;;;;25.18;27.35;98240.09;4903349;29;20075;-59
2022/01/23 10:42:54;;;;;;;8.43;5.13;;;;;;;25.22;27.53;98240.03;4891043;29;20106;-61
2022/01/23 10:50:44;;;;;;;10.77;4.75;;;;;;;25.30;27.47;98225.81;4905755;29;20987;-61
2022/01/23 10:53:09;;;;;;;10.05;4.78;;;;;;;25.34;27.59;98228.31;4902599;29;20151;-61
2022/01/23 10:55:35;;;;;;;7.43;4.22;;;;;;;25.37;27.56;98223.00;4915609;29;20646;-60
2022/01/23 10:58:06;;;;;;;9.52;4.43;;;;;;;25.39;27.64;98234.31;4918444;29;20039;-62
2022/01/23 11:00:40;;;;;;;13.82;3.90;;;;;;;25.38;27.71;98229.97;4906058;29;20434;-60
2022/01/23 11:03:20;;;;;;;8.75;4.05;;;;;;;25.43;27.52;98230.69;4902878;29;20127;-62
2022/01/23 11:05:45;;;;;;;5.80;3.58;;;;;;;25.45;27.50;98227.13;4904931;29;20138;-61
2022/01/23 11:08:27;;;;;;;5.93;3.60;;;;;;;25.48;27.72;98225.31;4904862;29;20142;-61
2022/01/23 11:11:00;;;;;;;5.18;3.42;;;;;;;25.49;27.78;98227.03;4902573;29;20763;-59
2022/01/23 11:19:26;;;;;;;7.90;3.53;;;;;;;25.52;27.76;98219.06;4913540;29;20085;-60
2022/01/23 11:21:53;;;;;;;5.15;3.03;;;;;;;25.55;27.78;98222.47;4917803;29;20032;-62
2022/01/23 11:24:21;;;;;;;5.85;3.63;;;;;;;25.56;27.73;98212.88;4902551;29;20031;-60
2022/01/23 11:26:47;;;;;;;7.05;3.28;;;;;;;25.57;27.77;98218.06;4905652;29;21276;-61
2022/01/23 11:29:17;;;;;;;7.07;3.30;;;;;;;25.59;27.87;98212.75;4903107;29;20095;-61
2022/01/23 11:31:43;;;;;;;8.43;3.22;;;;;;;25.59;27.90;98214.53;4902741;29;20084;-59
2022/01/23 11:34:09;;;;;;;5.22;3.20;;;;;;;25.62;27.85;98217.09;4904912;29;20028;-62
2022/01/23 11:36:35;;;;;;;5.57;3.03;;;;;;;25.62;27.94;98212.66;4904269;29;20090;-61
2022/01/23 11:39:08;;;;;;;4.85;2.78;;;;;;;25.63;27.87;98213.53;4902222;29;20062;-61
2022/01/23 11:55:35;;;;;;;5.10;2.80;;;;;;;25.68;28.00;98191.50;4905289;29;20102;-61
2022/01/23 11:58:01;;;;;;;5.78;3.13;;;;;;;25.68;27.90;98190.63;4902395;29;20059;-62
2022/01/23 12:00:27;;;;;;;11.30;2.85;;;;;;;25.69;27.99;98187.09;4903097;29;20036;-61
2022/01/23 12:03:14;;;;;;;5.03;2.70;;;;;;;25.70;28.02;98184.44;4903984;29;20035;-61
2022/01/23 12:05:47;;;;;;;4.72;2.40;;;;;;;25.73;28.07;98183.47;4901395;29;20666;-59
2022/01/23 12:08:34;;;;;;;4.30;2.70;;;;;;;25.73;28.13;98183.47;4917390;28;20040;-61
2022/01/23 12:16:31;;;;;;;4.60;2.50;;;;;;;25.75;27.97;98176.41;4918743;29;20036;-60
2022/01/23 12:19:23;;;;;;;4.65;2.42;;;;;;;25.74;28.14;98176.47;4909300;29;20371;-59
2022/01/23 12:21:50;;;;;;;;;;;;;;;25.75;28.07;98181.66;4902653;29;20043;-60
2022/01/23 12:24:16;;;;;;;3.58;2.13;;;;;;;25.76;28.14;98177.25;4902906;29;19923;-62
2022/01/23 12:26:42;;;;;;;3.17;2.30;;;;;;;25.77;28.07;98179.84;4918941;29;20040;-61
2022/01/23 12:29:22;;;;;;;4.15;2.25;;;;;;;25.72;28.11;98176.50;4902291;29;20637;-61
2022/01/23 12:31:48;;;;;;;3.45;2.30;;;;;;;25.76;28.07;98175.50;4899787;29;20697;-59
2022/01/23 12:34:14;;;;;;;5.28;2.58;;;;;;;25.76;28.16;98178.13;4901302;29;20035;-60
2022/01/23 12:36:40;;;;;;;2.95;2.20;;;;;;;25.77;28.19;98166.72;4903596;29;21044;-59
2022/01/23 12:39:12;;;;;;;4.25;2.22;;;;;;;25.77;28.12;98166.72;4901793;29;20953;-61
2022/01/23 12:41:57;;;;;;;3.40;2.20;;;;;;;25.77;28.24;98160.59;4905329;29;20043;-62
2022/01/23 12:44:22;;;;;;;5.13;2.17;;;;;;;25.77;28.10;98164.09;4901233;29;20043;-61
2022/01/23 12:47:04;;;;;;;3.85;2.20;;;;;;;25.78;28.07;98155.28;4897042;29;20115;-59
2022/01/23 12:49:50;;;;;;;3.50;1.98;;;;;;;25.78;28.18;98144.78;4900844;29;20028;-62
2022/01/23 12:52:20;;;;;;;3.55;2.30;;;;;;;25.79;28.10;98146.53;4891749;29;20047;-60
2022/01/23 12:54:51;;;;;;;3.10;2.03;;;;;;;25.79;28.11;98141.28;4905782;29;20031;-61
2022/01/23 12:57:18;;;;;;;3.85;2.25;;;;;;;25.80;28.18;98150.88;4901484;29;20106;-61
2022/01/23 12:59:54;;;;;;;3.88;2.28;;;;;;;25.81;28.21;98155.22;4917590;28;20040;-62
2022/01/23 13:02:22;;;;;;;3.63;2.17;;;;;;;25.83;28.15;98152.53;4902523;29;20027;-61
2022/01/23 13:04:49;;;;;;;2.83;2.10;;;;;;;25.82;28.18;98154.28;4902884;29;20118;-62
2022/01/23 13:07:31;;;;;;;3.13;2.05;;;;;;;25.83;28.23;98158.63;4917315;29;20728;-62
2022/01/23 13:10:07;;;;;;;3.13;2.00;;;;;;;25.83;28.29;98155.16;4900473;29;20055;-62
2022/01/23 13:31:45;;;;;;;4.28;1.92;;;;;;;25.83;28.09;98137.63;4900112;29;20095;-61
2022/01/23 13:34:41;;;;;;;2.83;1.63;;;;;;;25.82;28.27;98140.31;4892827;29;20043;-60
2022/01/23 13:37:07;;;;;;;4.13;2.00;;;;;;;25.82;28.14;98135.91;4896606;29;20502;-61
2022/01/23 13:39:36;;;;;;;2.63;1.80;;;;;;;25.82;28.34;98135.91;4900465;29;20147;-61
2022/01/23 13:42:27;;;;;;;2.65;1.77;;;;;;;25.82;28.27;98130.66;4912712;29;20095;-59
2022/01/23 13:53:35;;;;;;;2.55;1.88;;;;;;;25.82;28.14;98127.19;4903544;29;20043;-61
2022/01/23 13:59:49;;;;;;;1.98;1.50;;;;;;;25.81;28.30;98118.44;4884758;29;20066;-60
2022/01/23 14:02:17;;;;;;;2.00;1.50;;;;;;;25.80;28.14;98115.88;4857603;29;20119;-62
2022/01/23 14:05:04;;;;;;;1.92;1.60;;;;;;;25.79;28.28;98117.66;4902584;29;20139;-60
2022/01/23 14:07:29;;;;;;;3.70;1.88;;;;;;;25.80;28.31;98122.00;4903870;28;20035;-60
2022/01/23 14:09:59;;;;;;;2.03;1.65;;;;;;;25.78;28.38;98123.78;4893414;29;20043;-62
2022/01/23 14:12:25;;;;;;;3.60;1.60;;;;;;;25.78;28.26;98118.53;4904413;28;20199;-61
2022/01/23 14:15:05;;;;;;;2.03;1.73;;;;;;;25.80;28.50;98123.75;4889053;29;20035;-61
2022/01/23 14:17:35;;;;;;;4.32;1.77;;;;;;;25.80;28.64;98127.25;4892314;29;20398;-59
2022/01/23 14:20:08;;;;;;;3.42;1.85;;;;;;;25.79;28.58;98125.53;4892051;29;20048;-60
2022/01/23 14:22:35;;;;;;;4.47;2.00;;;;;;;25.80;28.87;98127.25;4893028;29;20588;-60
2022/01/23 14:25:09;;;;;;;3.92;2.28;;;;;;;25.79;28.95;98125.53;4888774;29;20651;-61
2022/01/23 14:27:35;;;;;;;4.45;2.45;;;;;;;25.80;29.20;98118.50;4900026;29;20139;-59
2022/01/23 14:30:07;;;;;;;3.97;2.30;;;;;;;25.80;29.45;98122.00;4897863;29;20090;-61
2022/01/23 14:33:05;;;;;;;3.20;2.40;;;;;;;25.80;29.82;98116.75;4913813;28;20028;-61
2022/01/23 14:35:28;;;;;;;4.80;3.30;;;;;;;25.73;27.25;98115.19;4901813;28;20522;-60
2022/01/23 14:38:02;;;;;;;3.40;2.53;;;;;;;25.69;27.58;98114.44;4902813;29;20658;-59
2022/01/23 14:40:28;;;;;;;7.13;3.90;;;;;;;25.65;27.96;98114.59;4897878;29;20040;-60
2022/01/23 14:43:06;;;;;;;9.85;4.60;;;;;;;25.65;28.59;98122.47;4913045;28;20032;-63
2022/01/23 14:45:35;;;;;;;29.75;14.82;;;;;;;25.64;28.97;98121.63;4903393;29;20067;-63
2022/01/23 14:48:01;;;;;;;100.80;51.35;;;;;;;25.65;29.39;98127.72;4897115;29;20840;-63
2022/01/23 14:50:29;;;;;;;165.23;76.53;;;;;;;25.66;29.86;98124.19;4899874;29;20044;-61
2022/01/23 14:52:55;;;;;;;200.95;97.00;;;;;;;25.67;29.88;98126.75;4913859;28;20031;-63
2022/01/23 14:55:20;;;;;;;198.38;90.65;;;;;;;25.68;30.27;98133.75;4899592;29;20035;-64
2022/01/23 14:57:46;;;;;;;202.60;94.55;;;;;;;25.70;30.36;98137.16;4891146;29;20027;-63
2022/01/23 15:00:12;;;;;;;185.88;89.45;;;;;;;25.72;30.56;98134.50;4904404;28;20059;-63
2022/01/23 15:02:38;;;;;;;171.93;82.80;;;;;;;25.74;30.66;98137.91;4889672;29;20032;-61
2022/01/23 15:05:03;;;;;;;155.30;75.22;;;;;;;25.75;30.78;98128.28;4892929;29;20724;-63
2022/01/23 15:07:41;;;;;;;156.02;73.55;;;;;;;25.78;30.99;98136.91;4890463;29;20036;-64
2022/01/23 15:10:08;;;;;;;144.70;71.18;;;;;;;25.77;31.00;98129.94;4891434;29;20044;-61
2022/01/23 15:12:34;;;;;;;142.13;68.38;;;;;;;25.79;30.96;98130.78;4893641;29;20036;-61
2022/01/23 15:14:59;;;;;;;131.15;65.80;;;;;;;25.79;31.11;98135.16;4890246;29;20035;-63